createdAt,value
2019-05-17T00:00:40.183Z,23.9
2019-05-17T00:10:43.511Z,23.9
2019-05-17T00:20:46.996Z,23.8
2019-05-17T00:30:50.626Z,23.8
2019-05-17T00:40:56.327Z,23.8
2019-05-17T00:51:01.840Z,23.7
2019-05-17T01:01:08.158Z,23.7
2019-05-17T01:11:12.006Z,23.7
2019-05-17T01:21:16.848Z,23.7
2019-05-17T01:31:20.352Z,23.6
2019-05-17T01:41:23.693Z,23.6
2019-05-17T01:51:27.025Z,23.6
2019-05-17T02:01:30.366Z,23.6
2019-05-17T02:11:33.700Z,23.6
2019-05-17T02:21:39.076Z,23.6
2019-05-17T02:31:43.422Z,23.5
2019-05-17T02:41:47.202Z,23.5
2019-05-17T02:51:52.693Z,23.5
2019-05-17T03:01:56.335Z,23.5
2019-05-17T03:12:02.888Z,23.4
2019-05-17T03:22:08.028Z,23.4
2019-05-17T03:32:16.922Z,23.4
2019-05-17T03:42:22.582Z,23.4
2019-05-17T03:52:26.121Z,23.4
2019-05-17T04:02:32.425Z,23.4
2019-05-17T04:12:36.153Z,23.4
2019-05-17T04:22:39.500Z,23.4
2019-05-17T04:32:44.031Z,23.3
2019-05-17T04:42:48.110Z,23.3
2019-05-17T04:52:53.525Z,23.3
2019-05-17T05:02:57.352Z,23.3
2019-05-17T05:13:03.031Z,23.3
2019-05-17T05:23:06.959Z,23.3
2019-05-17T05:33:12.541Z,23.3
2019-05-17T05:43:16.564Z,23.3
2019-05-17T05:53:21.796Z,23.3
2019-05-17T06:03:25.334Z,23.3
2019-05-17T06:13:28.679Z,23.3
2019-05-17T06:23:32.010Z,23.3
2019-05-17T06:33:35.375Z,23.3
2019-05-17T06:43:38.741Z,23.3
2019-05-17T06:53:43.518Z,23.3
2019-05-17T07:03:49.406Z,23.3
2019-05-17T07:13:52.859Z,23.4
2019-05-17T07:23:56.196Z,23.4
2019-05-17T07:33:59.919Z,23.4
2019-05-17T07:44:03.462Z,23.4
2019-05-17T07:54:06.790Z,23.4
2019-05-17T08:04:10.188Z,23.4
2019-05-17T08:14:26.618Z,23.4
2019-05-17T08:24:36.915Z,23.4
2019-05-17T08:34:40.257Z,23.5
2019-05-17T08:44:43.596Z,23.5
2019-05-17T08:54:49.429Z,23.5
2019-05-17T09:04:53.072Z,23.5
2019-05-17T09:14:56.410Z,23.5
2019-05-17T09:24:59.754Z,23.6
2019-05-17T09:35:03.077Z,23.5
2019-05-17T09:45:06.400Z,23.5
2019-05-17T09:55:10.089Z,23.6
2019-05-17T10:05:13.620Z,23.6
2019-05-17T10:15:16.946Z,23.6
2019-05-17T10:25:20.293Z,23.7
2019-05-17T10:35:23.613Z,23.7
2019-05-17T10:45:26.962Z,23.7
2019-05-17T10:55:30.397Z,23.8
2019-05-17T11:05:33.736Z,23.8
2019-05-17T11:15:37.165Z,23.8
2019-05-17T11:25:45.311Z,23.8
2019-05-17T11:35:50.252Z,23.9
2019-05-17T11:45:53.597Z,23.9
2019-05-17T11:55:56.905Z,23.9
2019-05-17T12:06:00.236Z,24
2019-05-17T12:16:03.657Z,24
2019-05-17T12:26:07.354Z,24
2019-05-17T12:36:10.673Z,24
2019-05-17T12:46:14.025Z,24
2019-05-17T12:56:17.358Z,24.1
2019-05-17T13:06:20.714Z,24.1
2019-05-17T13:16:24.041Z,24.1
2019-05-17T13:26:27.378Z,24.1
2019-05-17T13:36:30.753Z,24.1
2019-05-17T13:46:34.160Z,24.1
2019-05-17T13:56:37.499Z,24.1
2019-05-17T14:06:40.826Z,24.1
2019-05-17T14:16:44.186Z,24.1
2019-05-17T14:26:47.601Z,24.2
2019-05-17T14:36:50.979Z,24.2
2019-05-17T14:46:54.338Z,24.2
2019-05-17T14:56:57.689Z,24.2
2019-05-17T15:07:01.044Z,24.2
2019-05-17T15:17:04.400Z,24.2
2019-05-17T15:27:07.751Z,24.2
2019-05-17T15:37:11.173Z,24.2
2019-05-17T15:47:14.833Z,24.2
2019-05-17T15:57:18.166Z,24.2
2019-05-17T16:07:21.645Z,24.2
2019-05-17T16:17:24.961Z,24.2
2019-05-17T16:27:28.299Z,24.3
2019-05-17T16:37:31.611Z,24.3
2019-05-17T16:47:34.975Z,24.3
2019-05-17T16:57:38.340Z,24.3
2019-05-17T17:07:41.685Z,24.4
2019-05-17T17:17:45.023Z,24.3
2019-05-17T17:27:48.352Z,24.3
2019-05-17T17:37:51.728Z,24.3
2019-05-17T17:47:55.127Z,24.3
2019-05-17T17:57:58.468Z,24.2
2019-05-17T18:08:01.813Z,24.2
2019-05-17T18:18:05.123Z,24.2
2019-05-17T18:28:08.472Z,24.1
2019-05-17T18:38:11.846Z,24.1
2019-05-17T18:48:15.234Z,24.1
2019-05-17T18:58:18.591Z,24.1
2019-05-17T19:08:21.960Z,24
2019-05-17T19:18:25.331Z,24
2019-05-17T19:28:28.676Z,24
2019-05-17T19:38:32.008Z,23.9
2019-05-17T19:48:35.377Z,23.9
2019-05-17T19:58:38.734Z,23.8
2019-05-17T20:08:42.076Z,23.8
2019-05-17T20:18:45.432Z,23.7
2019-05-17T20:28:48.762Z,23.7
2019-05-17T20:38:52.096Z,23.7
2019-05-17T20:48:55.436Z,23.7
2019-05-17T20:58:58.766Z,23.7
2019-05-17T21:09:02.089Z,23.6
2019-05-17T21:19:05.414Z,23.6
2019-05-17T21:29:08.749Z,23.6
2019-05-17T21:39:12.112Z,23.6
2019-05-17T21:49:15.473Z,23.6
2019-05-17T21:59:18.819Z,23.5
2019-05-17T22:09:22.178Z,23.5
2019-05-17T22:19:25.550Z,23.5
2019-05-17T22:29:28.899Z,23.5
2019-05-17T22:39:32.229Z,23.5
2019-05-17T22:49:35.580Z,23.5
2019-05-17T22:59:38.926Z,23.4
2019-05-17T23:09:42.262Z,23.4
2019-05-17T23:19:45.649Z,23.4
2019-05-17T23:29:48.994Z,23.4
2019-05-17T23:39:52.341Z,23.4
2019-05-17T23:49:55.733Z,23.4
2019-05-17T23:59:59.059Z,23.4
